Time;durP1;ratioP1;P1;durP2;ratioP2;P2;SDS_P1;SDS_P2;PMS_P1;PMS_P2;Temp;Humidity;BMP_temperature;BMP_pressure;BME280_temperature;BME280_humidity;BME280_pressure;Samples;Min_cycle;Max_cycle;Signal;HPM_P1;HPM_P2
2023/06/07 00:02:42;;;;;;;5.80;4.10;;;;;;;23.19;65.90;99681.69;10224617;28;96887;-81
2023/06/07 00:07:47;;;;;;;6.07;3.80;;;;;;;23.10;65.97;99691.50;10237632;28;96532;-81
2023/06/07 00:12:50;;;;;;;6.47;4.47;;;;;;;22.94;67.10;99690.53;10254825;28;97649;-81
2023/06/07 00:17:55;;;;;;;5.93;4.50;;;;;;;23.01;66.87;99694.28;10239871;28;96674;-81
2023/06/07 00:22:58;;;;;;;6.10;4.13;;;;;;;22.82;68.30;99711.34;10224561;28;97483;-81
2023/06/07 00:28:02;;;;;;;7.00;4.53;;;;;;;22.74;68.45;99724.63;10254230;28;96683;-81
2023/06/07 00:33:07;;;;;;;6.87;4.07;;;;;;;22.42;69.52;99726.91;10253773;28;97814;-81
2023/06/07 00:38:10;;;;;;;7.88;4.85;;;;;;;22.41;69.65;99725.22;10254053;28;97879;-81
2023/06/07 00:43:13;;;;;;;6.50;4.60;;;;;;;22.51;69.35;99705.44;10253761;28;96676;-81
2023/06/07 00:48:18;;;;;;;6.90;4.67;;;;;;;22.27;69.46;99706.94;10253466;28;96638;-81
2023/06/07 00:53:22;;;;;;;6.57;4.60;;;;;;;22.31;69.64;99721.75;10253646;28;97066;-80
2023/06/07 00:58:26;;;;;;;6.33;4.27;;;;;;;22.41;69.70;99726.09;10251725;28;97657;-80
2023/06/07 01:03:34;;;;;;;5.90;3.95;;;;;;;22.38;69.95;99720.19;10216674;28;96829;-80
2023/06/07 01:08:38;;;;;;;7.95;4.40;;;;;;;22.20;70.41;99722.78;10212528;28;96714;-81
2023/06/07 01:13:43;;;;;;;5.80;4.30;;;;;;;22.20;70.80;99732.66;10227580;28;96696;-81
2023/06/07 01:18:48;;;;;;;5.32;4.15;;;;;;;22.04;71.36;99737.81;10259942;28;96640;-81
2023/06/07 01:23:53;;;;;;;6.57;4.45;;;;;;;22.20;71.13;99733.50;10259816;28;96802;-81
2023/06/07 01:29:05;;;;;;;7.75;5.00;;;;;;;22.09;71.58;99722.94;10259908;28;96952;-81
2023/06/07 01:34:09;;;;;;;7.13;4.53;;;;;;;22.01;71.62;99706.78;10259893;28;96990;-81
2023/06/07 01:39:16;;;;;;;5.72;4.47;;;;;;;21.99;71.92;99711.44;10259681;28;96743;-80
2023/06/07 01:44:20;;;;;;;6.20;4.55;;;;;;;21.96;71.84;99714.38;10259315;28;97515;-81
2023/06/07 01:49:23;;;;;;;6.82;4.43;;;;;;;22.01;72.04;99720.16;10257544;28;97843;-81
2023/06/07 01:54:28;;;;;;;5.05;4.30;;;;;;;21.92;72.36;99721.00;10258647;28;97213;-81
2023/06/07 01:59:42;;;;;;;7.85;4.90;;;;;;;21.86;72.81;99729.63;10254487;28;96803;-81
2023/06/07 02:04:49;;;;;;;8.52;5.15;;;;;;;21.90;73.01;99731.00;10218434;28;97307;-79
2023/06/07 02:09:55;;;;;;;6.95;5.13;;;;;;;22.10;72.42;99731.84;10218191;28;98195;-79
2023/06/07 02:15:00;;;;;;;7.85;5.15;;;;;;;22.24;71.91;99726.88;10218021;28;96715;-80
2023/06/07 02:20:03;;;;;;;6.45;4.65;;;;;;;22.07;72.46;99714.22;10218075;28;97308;-79
2023/06/07 02:25:10;;;;;;;6.25;4.80;;;;;;;22.06;72.88;99711.69;10217867;28;96710;-80
2023/06/07 02:30:13;;;;;;;6.45;4.70;;;;;;;22.08;72.69;99717.75;10217588;28;96700;-80
2023/06/07 02:35:19;;;;;;;7.70;5.53;;;;;;;21.85;73.42;99711.03;10217148;28;96785;-80
2023/06/07 02:40:24;;;;;;;7.65;5.15;;;;;;;21.96;73.32;99716.19;10216603;28;96814;-80
2023/06/07 02:45:27;;;;;;;7.55;5.50;;;;;;;22.21;72.38;99711.06;10216977;28;97864;-80
2023/06/07 02:50:30;;;;;;;8.05;5.38;;;;;;;22.19;72.44;99704.16;10216972;28;97874;-80
2023/06/07 02:55:35;;;;;;;9.73;5.63;;;;;;;22.22;72.43;99694.00;10217186;28;96700;-80
2023/06/07 03:00:39;;;;;;;7.57;5.63;;;;;;;22.24;72.29;99699.22;10203729;28;97865;-80
2023/06/07 03:05:45;;;;;;;6.93;5.28;;;;;;;22.12;72.57;99689.66;10175595;28;96939;-80
2023/06/07 03:10:50;;;;;;;7.60;5.25;;;;;;;22.05;72.79;99688.56;10176324;28;96614;-80
2023/06/07 03:15:53;;;;;;;8.10;5.50;;;;;;;22.01;73.07;99685.34;10211999;28;97021;-80
2023/06/07 03:20:56;;;;;;;7.25;5.68;;;;;;;21.97;73.17;99691.94;10214928;28;96718;-80
2023/06/07 03:26:01;;;;;;;8.43;5.38;;;;;;;22.11;72.76;99674.56;10215748;28;97581;-80
2023/06/07 03:31:04;;;;;;;6.72;5.10;;;;;;;21.97;72.89;99641.03;10234319;28;97910;-80
2023/06/07 03:36:08;;;;;;;8.95;5.65;;;;;;;21.66;74.07;99647.63;10255373;28;97249;-80
2023/06/07 03:41:12;;;;;;;7.85;5.45;;;;;;;21.55;74.42;99639.78;10255892;28;97507;-80
2023/06/07 03:46:16;;;;;;;7.88;5.57;;;;;;;21.68;74.11;99639.44;10254605;28;96763;-80
2023/06/07 03:51:20;;;;;;;7.10;5.15;;;;;;;21.82;73.92;99634.47;10255758;28;97348;-80
2023/06/07 03:56:25;;;;;;;8.65;5.53;;;;;;;21.67;74.57;99637.75;10255303;28;96791;-80
2023/06/07 04:01:29;;;;;;;8.18;5.65;;;;;;;21.77;74.34;99642.09;10214807;28;99334;-80
2023/06/07 04:06:33;;;;;;;6.67;5.23;;;;;;;21.83;73.92;99635.31;10207305;28;97275;-80
2023/06/07 04:11:38;;;;;;;8.88;5.75;;;;;;;21.79;74.49;99632.09;10214710;28;96621;-80
2023/06/07 04:16:41;;;;;;;7.68;5.55;;;;;;;21.63;74.59;99621.13;10214769;28;96692;-80
2023/06/07 04:21:45;;;;;;;7.38;5.50;;;;;;;21.67;74.59;99627.91;10214027;28;97994;-80
2023/06/07 04:26:53;;;;;;;8.45;5.68;;;;;;;21.60;74.96;99625.94;10213886;28;96741;-80
2023/06/07 04:31:58;;;;;;;7.72;5.45;;;;;;;21.63;74.50;99622.97;10213958;28;96840;-80
2023/06/07 04:37:03;;;;;;;8.32;4.93;;;;;;;21.50;75.17;99621.44;10214242;28;96701;-80
2023/06/07 04:42:10;;;;;;;6.53;5.20;;;;;;;21.45;75.44;99618.38;10213547;28;97470;-80
2023/06/07 04:47:14;;;;;;;8.50;5.20;;;;;;;21.63;75.06;99621.13;10212696;28;97036;-80
2023/06/07 04:52:19;;;;;;;8.37;5.47;;;;;;;21.62;74.62;99618.59;10213698;28;96869;-80
2023/06/07 04:57:24;;;;;;;6.68;5.38;;;;;;;21.60;75.19;99625.94;10214550;28;97260;-80
2023/06/07 05:02:27;;;;;;;8.73;5.85;;;;;;;21.55;75.23;99631.75;10212692;28;96846;-80
2023/06/07 05:07:33;;;;;;;6.50;5.15;;;;;;;21.59;75.34;99629.63;10212424;28;96907;-80
2023/06/07 05:12:38;;;;;;;8.00;5.05;;;;;;;21.64;75.50;99638.06;10212312;28;96740;-80
2023/06/07 05:17:41;;;;;;;7.63;5.53;;;;;;;21.58;75.51;99638.63;10212657;28;96859;-80
2023/06/07 05:22:45;;;;;;;7.18;5.43;;;;;;;21.54;76.35;99647.97;10212559;28;97830;-80
2023/06/07 05:27:50;;;;;;;7.03;5.47;;;;;;;21.52;76.33;99657.97;10213128;28;97124;-81
2023/06/07 05:33:13;;;;;;;8.65;5.90;;;;;;;21.45;76.67;99663.03;10211996;28;96849;-80
2023/06/07 05:38:16;;;;;;;8.57;5.97;;;;;;;21.31;77.25;99685.72;10212512;28;96746;-81
2023/06/07 05:43:21;;;;;;;6.78;5.43;;;;;;;21.25;77.39;99693.47;10211994;28;97680;-81
2023/06/07 05:48:24;;;;;;;6.35;5.63;;;;;;;21.29;77.13;99697.56;10213662;28;98154;-80
2023/06/07 05:53:28;;;;;;;6.65;5.43;;;;;;;21.13;77.97;99683.88;10211603;28;97221;-81
2023/06/07 05:58:32;;;;;;;7.57;5.53;;;;;;;21.01;79.11;99676.97;10215225;28;96609;-80
2023/06/07 06:03:36;;;;;;;7.82;5.88;;;;;;;21.04;78.66;99679.38;10196619;28;96748;-80
2023/06/07 06:08:39;;;;;;;7.90;6.13;;;;;;;20.85;79.81;99682.03;10217983;28;97543;-81
2023/06/07 06:13:44;;;;;;;8.13;6.03;;;;;;;20.79;79.84;99678.06;10218128;28;97575;-80
2023/06/07 06:18:48;;;;;;;7.75;5.00;;;;;;;20.85;79.65;99679.34;10217228;28;96771;-80
2023/06/07 06:23:51;;;;;;;8.15;4.93;;;;;;;21.02;78.50;99673.31;10258366;28;97426;-80
2023/06/07 06:28:58;;;;;;;9.07;5.97;;;;;;;20.88;79.19;99671.06;10258022;28;97203;-80
2023/06/07 06:34:02;;;;;;;7.93;5.07;;;;;;;20.90;78.88;99679.78;10257626;28;96710;-80
2023/06/07 06:39:07;;;;;;;8.13;5.93;;;;;;;21.01;78.28;99676.97;10257932;28;97293;-80
2023/06/07 06:44:12;;;;;;;15.90;4.85;;;;;;;21.16;77.49;99671.09;10257352;28;97116;-80
2023/06/07 06:49:15;;;;;;;5.28;3.85;;;;;;;21.27;77.31;99687.00;10257443;28;96650;-80
2023/06/07 06:54:20;;;;;;;3.37;2.57;;;;;;;21.36;76.58;99694.16;10255844;28;96843;-80
2023/06/07 06:59:25;;;;;;;4.15;3.13;;;;;;;21.39;77.02;99707.28;10253416;28;97424;-80
2023/06/07 07:04:29;;;;;;;4.53;3.20;;;;;;;21.46;76.79;99699.53;10215840;28;97005;-80
2023/06/07 07:09:32;;;;;;;5.37;3.90;;;;;;;21.42;76.88;99688.25;10215964;28;96878;-80
2023/06/07 07:14:37;;;;;;;4.32;2.78;;;;;;;21.48;76.45;99697.56;10216491;28;97154;-80
2023/06/07 07:19:40;;;;;;;4.18;2.85;;;;;;;21.62;75.66;99704.31;10215884;28;97214;-80
2023/06/07 07:24:43;;;;;;;4.78;3.08;;;;;;;21.55;76.10;99698.69;10215912;28;96657;-80
2023/06/07 07:29:48;;;;;;;3.20;2.75;;;;;;;21.54;76.27;99713.03;10217247;28;97251;-80
2023/06/07 07:34:51;;;;;;;4.30;2.95;;;;;;;21.60;75.84;99711.63;10215480;28;97377;-80
2023/06/07 07:39:55;;;;;;;4.43;3.27;;;;;;;21.63;75.81;99717.53;10215582;28;96504;-80
2023/06/07 07:45:00;;;;;;;3.90;2.70;;;;;;;21.74;75.46;99708.50;10214762;28;97336;-80
2023/06/07 07:50:04;;;;;;;3.03;2.20;;;;;;;21.84;75.21;99715.53;10215367;28;96729;-80
2023/06/07 07:55:08;;;;;;;2.78;2.30;;;;;;;21.93;75.05;99716.50;10214212;28;96749;-80
2023/06/07 08:00:15;;;;;;;3.03;2.40;;;;;;;21.59;75.84;99710.78;10204838;28;97559;-80
2023/06/07 08:05:19;;;;;;;3.50;2.67;;;;;;;21.55;75.81;99712.06;10212337;28;97379;-80
2023/06/07 08:10:24;;;;;;;3.50;2.42;;;;;;;21.54;75.82;99717.56;10214535;28;96723;-80
2023/06/07 08:15:31;;;;;;;4.93;3.00;;;;;;;21.50;75.77;99715.16;10214207;28;97307;-80
2023/06/07 08:20:34;;;;;;;4.30;2.67;;;;;;;21.38;75.88;99723.50;10214918;28;96972;-80
2023/06/07 08:25:38;;;;;;;4.30;2.90;;;;;;;21.49;75.55;99717.97;10213929;28;96661;-80
2023/06/07 08:30:43;;;;;;;4.45;3.03;;;;;;;21.54;75.54;99736.31;10213881;28;96675;-80
2023/06/07 08:35:46;;;;;;;4.68;3.58;;;;;;;21.49;76.13;99731.38;10224846;22;97373;-80
2023/06/07 08:40:49;;;;;;;4.65;2.97;;;;;;;21.76;75.55;99734.13;10214270;28;96678;-80
2023/06/07 08:45:56;;;;;;;5.57;3.03;;;;;;;21.79;75.62;99741.91;10213426;28;96681;-80
2023/06/07 08:51:02;;;;;;;4.82;3.33;;;;;;;21.85;75.47;99741.31;10213561;28;97518;-80
2023/06/07 08:56:06;;;;;;;6.65;3.30;;;;;;;21.73;75.91;99736.28;10213800;28;97403;-80
2023/06/07 09:01:11;;;;;;;4.70;3.42;;;;;;;21.77;76.12;99745.72;10213078;28;96877;-80
2023/06/07 09:06:16;;;;;;;5.22;3.47;;;;;;;21.78;75.94;99734.84;10212906;28;96658;-80
2023/06/07 09:11:19;;;;;;;4.40;3.17;;;;;;;21.75;75.84;99743.19;10214434;28;97554;-80
2023/06/07 09:16:24;;;;;;;5.78;3.80;;;;;;;21.85;75.83;99748.53;10212814;28;96655;-80
2023/06/07 09:21:45;;;;;;;7.75;4.20;;;;;;;21.78;76.07;99739.38;10205163;28;96904;-80
2023/06/07 09:26:49;;;;;;;6.80;3.97;;;;;;;21.92;75.41;99741.59;10220693;28;96768;-80
2023/06/07 09:31:53;;;;;;;9.17;5.63;;;;;;;22.20;75.12;99733.50;10255810;28;97998;-80
2023/06/07 09:36:58;;;;;;;17.90;9.70;;;;;;;22.25;75.29;99725.88;10233694;28;96822;-80
2023/06/07 09:42:02;;;;;;;27.60;14.68;;;;;;;22.28;75.33;99725.56;10219665;28;96757;-80
2023/06/07 09:47:19;;;;;;;13.93;7.87;;;;;;;22.32;75.67;99718.91;10218715;28;96801;-80
2023/06/07 09:52:23;;;;;;;9.43;5.50;;;;;;;22.55;74.77;99716.69;10218760;28;96763;-80
2023/06/07 09:57:30;;;;;;;6.23;4.27;;;;;;;22.58;74.39;99717.25;10218750;28;97624;-80
2023/06/07 10:02:35;;;;;;;5.97;4.22;;;;;;;22.51;74.55;99732.25;10220098;28;96609;-81
2023/06/07 10:07:40;;;;;;;4.63;3.47;;;;;;;22.50;74.19;99725.19;10217624;28;96850;-80
2023/06/07 10:12:46;;;;;;;4.55;3.40;;;;;;;22.48;73.94;99724.50;10218439;28;96682;-80
2023/06/07 10:17:56;;;;;;;3.67;2.97;;;;;;;22.54;73.47;99710.47;10217757;28;96664;-80
2023/06/07 10:23:04;;;;;;;4.50;3.33;;;;;;;22.53;73.73;99718.69;10218729;28;97147;-80
2023/06/07 10:28:33;;;;;;;5.13;3.20;;;;;;;22.51;73.55;99718.84;10213970;28;97902;-81
2023/06/07 10:33:38;;;;;;;7.90;4.18;;;;;;;22.38;73.92;99725.53;10217446;28;96922;-80
2023/06/07 10:38:42;;;;;;;4.30;3.00;;;;;;;22.40;73.31;99726.25;10216576;28;97822;-81
2023/06/07 10:43:46;;;;;;;4.97;3.25;;;;;;;22.09;73.80;99714.91;10216354;28;97439;-80
2023/06/07 10:48:51;;;;;;;;;;;;;;;22.09;73.73;99709.56;10217616;28;96675;-80
2023/06/07 10:53:56;;;;;;;3.72;2.30;;;;;;;22.14;73.48;99722.53;10218729;28;97574;-80
2023/06/07 10:59:21;;;;;;;4.45;2.60;;;;;;;22.18;73.04;99722.09;10217032;28;97064;-80
2023/06/07 11:05:00;;;;;;;3.05;2.30;;;;;;;22.21;73.17;99708.38;10216389;28;97605;-81
2023/06/07 11:10:35;;;;;;;3.63;2.63;;;;;;;22.18;73.24;99708.69;10216115;28;97645;-81
2023/06/07 11:15:38;;;;;;;5.10;2.72;;;;;;;22.36;73.09;99709.59;10216731;28;97101;-81
2023/06/07 11:20:53;;;;;;;4.13;3.10;;;;;;;22.49;72.93;99702.03;10216461;28;96687;-80
2023/06/07 11:26:00;;;;;;;5.28;3.20;;;;;;;22.57;72.58;99704.81;10216555;28;96919;-80
2023/06/07 11:31:04;;;;;;;5.38;3.60;;;;;;;22.53;73.01;99705.28;10215996;28;97302;-81
2023/06/07 11:36:13;;;;;;;3.67;2.60;;;;;;;22.63;72.92;99700.69;10214676;28;96849;-81
2023/06/07 11:41:18;;;;;;;4.78;3.40;;;;;;;22.72;72.86;99702.47;10215619;28;96539;-81
2023/06/07 11:46:21;;;;;;;6.00;3.53;;;;;;;22.71;72.03;99683.84;10253576;28;96803;-80
2023/06/07 11:51:28;;;;;;;4.43;3.10;;;;;;;22.79;71.20;99686.66;10255663;28;97690;-81
2023/06/07 11:56:36;;;;;;;3.88;2.78;;;;;;;22.78;71.57;99677.78;10255861;28;96867;-81
2023/06/07 12:01:42;;;;;;;3.50;2.55;;;;;;;22.84;71.02;99684.34;10253611;28;97259;-81
2023/06/07 12:06:48;;;;;;;4.55;2.97;;;;;;;22.79;71.91;99679.44;10227938;28;96583;-81
2023/06/07 12:11:53;;;;;;;3.63;2.33;;;;;;;22.71;72.15;99678.50;10214488;28;98033;-80
2023/06/07 12:16:58;;;;;;;3.45;2.58;;;;;;;22.84;71.32;99685.19;10214948;28;96676;-81
2023/06/07 12:22:07;;;;;;;3.78;2.40;;;;;;;22.98;71.23;99679.31;10212806;28;96721;-81
2023/06/07 12:27:13;;;;;;;3.35;2.45;;;;;;;23.24;70.59;99676.69;10213670;28;96678;-80
2023/06/07 12:32:36;;;;;;;3.47;2.70;;;;;;;23.27;70.58;99663.81;10214176;28;96812;-80
2023/06/07 12:37:42;;;;;;;3.80;2.67;;;;;;;23.47;70.27;99672.53;10221738;28;97327;-81
2023/06/07 12:42:46;;;;;;;3.85;2.28;;;;;;;23.45;70.03;99663.78;10213762;28;96706;-80
2023/06/07 12:47:49;;;;;;;3.70;2.47;;;;;;;23.54;69.71;99666.44;10213714;28;96672;-80
2023/06/07 12:52:53;;;;;;;3.30;2.40;;;;;;;23.63;69.47;99656.56;10213026;28;97831;-80
2023/06/07 12:57:57;;;;;;;3.65;2.20;;;;;;;23.63;69.01;99653.88;10213092;28;96658;-81
2023/06/07 13:03:00;;;;;;;3.23;2.20;;;;;;;23.50;68.06;99639.97;10213182;28;97298;-80
2023/06/07 13:08:05;;;;;;;2.60;2.20;;;;;;;23.64;68.06;99644.81;10217699;28;96866;-80
2023/06/07 13:13:08;;;;;;;3.40;2.30;;;;;;;23.80;67.79;99630.63;10220607;28;96681;-80
2023/06/07 13:18:12;;;;;;;2.57;1.90;;;;;;;23.68;67.41;99632.75;10220010;28;97931;-81
2023/06/07 13:23:17;;;;;;;3.58;1.42;;;;;;;23.73;67.19;99628.56;10220190;28;96523;-81
2023/06/07 13:28:20;;;;;;;2.92;2.33;;;;;;;23.73;66.63;99628.56;10220853;28;97007;-80
2023/06/07 13:33:23;;;;;;;2.63;1.90;;;;;;;23.72;66.09;99620.69;10219261;28;96684;-81
2023/06/07 13:38:28;;;;;;;2.90;1.83;;;;;;;23.81;65.83;99616.19;10219291;28;97795;-81
2023/06/07 13:43:49;;;;;;;2.45;1.52;;;;;;;24.06;65.09;99607.25;10212470;28;96672;-80
2023/06/07 13:49:05;;;;;;;1.98;1.42;;;;;;;24.36;64.12;99618.31;10219092;28;96683;-81
2023/06/07 13:54:10;;;;;;;1.55;1.25;;;;;;;24.48;63.78;99608.13;10218669;28;96712;-81
2023/06/07 13:59:14;;;;;;;2.28;1.20;;;;;;;24.51;62.89;99587.13;10219236;28;96733;-81
2023/06/07 14:04:18;;;;;;;2.15;1.20;;;;;;;24.65;62.37;99591.00;10218259;28;96834;-80
2023/06/07 14:09:23;;;;;;;2.00;1.10;;;;;;;24.59;62.77;99594.34;10218334;28;96837;-80
2023/06/07 14:14:26;;;;;;;1.65;1.02;;;;;;;24.54;62.84;99594.84;10218573;28;96566;-80
2023/06/07 14:19:30;;;;;;;2.30;1.40;;;;;;;24.46;63.33;99610.13;10218343;28;96804;-81
2023/06/07 14:24:34;;;;;;;1.43;1.30;;;;;;;24.57;63.18;99599.88;10217677;28;96688;-80
2023/06/07 14:29:38;;;;;;;1.90;1.08;;;;;;;24.71;63.08;99607.31;10217974;28;96594;-81
2023/06/07 14:34:41;;;;;;;1.77;1.53;;;;;;;24.67;62.81;99605.97;10216515;28;97229;-80
2023/06/07 14:39:46;;;;;;;1.90;1.50;;;;;;;25.01;63.04;99605.88;10217411;28;97635;-81
2023/06/07 14:44:49;;;;;;;1.80;1.30;;;;;;;25.10;62.67;99604.88;10217183;28;96641;-80
2023/06/07 14:49:52;;;;;;;2.23;1.40;;;;;;;25.06;63.02;99599.97;10217489;28;96874;-80
2023/06/07 14:54:57;;;;;;;2.23;1.53;;;;;;;24.92;62.45;99595.22;10217077;28;96961;-80
2023/06/07 15:00:04;;;;;;;2.28;1.45;;;;;;;25.46;62.03;99595.41;10216754;28;96777;-81
2023/06/07 15:05:09;;;;;;;2.10;1.42;;;;;;;25.84;61.07;99591.13;10216517;28;96795;-81
2023/06/07 15:10:15;;;;;;;2.00;1.30;;;;;;;26.07;60.54;99581.28;10217561;28;97809;-80
2023/06/07 15:15:20;;;;;;;2.17;1.25;;;;;;;26.06;59.42;99571.50;10216267;28;96650;-80
2023/06/07 15:20:24;;;;;;;1.83;1.00;;;;;;;26.14;59.56;99566.09;10204154;28;96702;-80
2023/06/07 15:25:46;;;;;;;1.90;1.20;;;;;;;26.00;58.70;99574.91;10219190;28;97310;-81
2023/06/07 15:30:49;;;;;;;1.85;1.50;;;;;;;26.33;58.84;99573.75;10255668;28;96676;-81
2023/06/07 15:35:53;;;;;;;2.10;1.50;;;;;;;26.57;58.21;99565.53;10255545;28;97014;-81
2023/06/07 15:41:15;;;;;;;1.73;1.15;;;;;;;26.79;57.09;99550.34;10216487;28;96711;-81
2023/06/07 15:46:36;;;;;;;1.80;1.20;;;;;;;26.47;57.50;99551.41;10213431;28;96802;-80
2023/06/07 15:51:41;;;;;;;3.00;1.42;;;;;;;26.23;58.27;99548.81;10215447;28;96920;-80
2023/06/07 15:56:45;;;;;;;2.17;1.43;;;;;;;25.86;59.04;99546.81;10215554;28;96969;-80
2023/06/07 16:02:07;;;;;;;3.67;1.35;;;;;;;26.05;59.72;99542.84;10209404;28;96586;-80
2023/06/07 16:07:10;;;;;;;3.03;1.70;;;;;;;26.07;59.80;99540.81;10214166;28;96867;-81
2023/06/07 16:12:15;;;;;;;1.48;1.23;;;;;;;26.20;58.47;99542.94;10214848;28;96812;-80
2023/06/07 16:17:18;;;;;;;2.70;1.25;;;;;;;26.29;58.68;99533.78;10213917;28;96666;-81
2023/06/07 16:22:22;;;;;;;2.05;1.25;;;;;;;26.45;58.31;99541.81;10214429;28;96817;-81
2023/06/07 16:27:27;;;;;;;2.67;1.33;;;;;;;26.38;58.16;99522.81;10214394;28;96737;-80
2023/06/07 16:32:31;;;;;;;1.65;1.20;;;;;;;26.49;56.33;99516.16;10214751;28;96967;-81
2023/06/07 16:37:34;;;;;;;2.28;1.42;;;;;;;26.19;58.42;99506.19;10208928;28;97795;-81
2023/06/07 16:42:40;;;;;;;2.20;1.47;;;;;;;26.01;58.21;99511.84;10172940;28;96691;-81
2023/06/07 16:47:44;;;;;;;1.63;1.25;;;;;;;26.11;58.11;99501.69;10175426;28;96720;-81
2023/06/07 16:52:48;;;;;;;3.72;1.38;;;;;;;26.14;58.52;99487.88;10214256;28;96658;-80
2023/06/07 16:58:11;;;;;;;2.95;1.45;;;;;;;26.24;58.12;99474.97;10209638;28;96651;-80
2023/06/07 17:03:14;;;;;;;2.22;1.33;;;;;;;26.14;58.43;99454.66;10212894;28;96639;-80
2023/06/07 17:08:17;;;;;;;2.17;1.48;;;;;;;26.15;57.78;99457.16;10212335;28;96596;-80
2023/06/07 17:13:22;;;;;;;2.63;1.30;;;;;;;26.19;57.89;99445.00;10212411;28;98734;-81
2023/06/07 17:18:25;;;;;;;1.65;1.13;;;;;;;26.39;56.72;99445.38;10212722;28;97524;-80
2023/06/07 17:23:28;;;;;;;1.30;1.00;;;;;;;26.67;55.93;99441.09;10213518;28;96916;-81
2023/06/07 17:28:50;;;;;;;1.38;1.10;;;;;;;26.59;55.88;99444.69;10210685;28;96637;-80
2023/06/07 17:33:53;;;;;;;2.75;1.60;;;;;;;26.51;56.37;99438.53;10211867;28;96801;-80
2023/06/07 17:38:56;;;;;;;2.63;1.07;;;;;;;26.48;57.35;99452.41;10212842;28;96951;-81
2023/06/07 17:44:01;;;;;;;1.60;1.23;;;;;;;26.19;58.22;99463.03;10212638;28;97540;-81
2023/06/07 17:49:23;;;;;;;4.47;2.38;;;;;;;25.20;62.61;99491.56;10209991;28;96560;-80
2023/06/07 17:54:27;;;;;;;4.30;2.20;;;;;;;24.76;64.12;99523.38;10216663;28;97054;-80
2023/06/07 17:59:31;;;;;;;5.03;2.53;;;;;;;24.35;66.74;99511.75;10248826;28;96657;-80
2023/06/07 18:04:35;;;;;;;4.93;3.20;;;;;;;24.11;68.39;99526.97;10258488;28;96731;-80
2023/06/07 18:09:38;;;;;;;4.03;2.60;;;;;;;24.00;69.69;99538.84;10234286;28;97084;-80
2023/06/07 18:14:43;;;;;;;4.90;3.07;;;;;;;23.85;70.18;99540.47;10218838;28;97705;-80
2023/06/07 18:19:46;;;;;;;5.38;2.97;;;;;;;23.80;70.42;99537.44;10216491;28;98591;-80
2023/06/07 18:24:50;;;;;;;5.07;2.83;;;;;;;23.66;71.48;99535.38;10218028;28;96774;-80
2023/06/07 18:29:54;;;;;;;5.07;3.00;;;;;;;23.60;71.43;99558.31;10219768;28;97395;-81
2023/06/07 18:34:58;;;;;;;5.65;3.00;;;;;;;23.26;73.76;99580.75;10258371;28;96917;-80
2023/06/07 18:40:04;;;;;;;4.67;2.50;;;;;;;23.15;73.84;99589.88;10253444;28;97021;-80
2023/06/07 18:45:10;;;;;;;4.28;2.83;;;;;;;23.39;72.85;99568.56;10217513;28;98208;-81
2023/06/07 18:50:14;;;;;;;5.40;3.13;;;;;;;23.68;72.61;99577.16;10216520;28;96674;-80
2023/06/07 18:55:17;;;;;;;5.80;3.03;;;;;;;23.57;73.74;99614.22;10216917;28;96655;-81
2023/06/07 19:00:40;;;;;;;5.55;2.78;;;;;;;23.94;72.77;99592.41;10210434;28;97077;-80
2023/06/07 19:05:43;;;;;;;4.15;2.70;;;;;;;24.07;73.36;99582.91;10215916;28;96624;-81
2023/06/07 19:10:46;;;;;;;6.53;3.73;;;;;;;24.27;73.15;99613.06;10216560;28;97986;-80
2023/06/07 19:15:51;;;;;;;4.30;2.83;;;;;;;24.00;73.96;99632.06;10216377;28;96811;-80
2023/06/07 19:20:55;;;;;;;5.75;3.20;;;;;;;24.00;74.17;99642.84;10217157;28;96943;-81
2023/06/07 19:25:58;;;;;;;4.20;3.10;;;;;;;23.91;74.49;99628.50;10216906;28;96677;-81
2023/06/07 19:31:20;;;;;;;6.03;2.92;;;;;;;23.49;76.00;99633.75;10209673;28;96642;-81
2023/06/07 19:36:41;;;;;;;4.03;2.70;;;;;;;23.18;77.00;99591.44;10213753;28;96823;-81
2023/06/07 19:41:45;;;;;;;5.20;3.73;;;;;;;23.15;76.85;99602.44;10215541;28;97766;-81
2023/06/07 19:46:50;;;;;;;4.90;3.05;;;;;;;22.90;78.52;99592.53;10215495;28;97183;-81
2023/06/07 19:51:53;;;;;;;5.28;3.63;;;;;;;22.93;77.66;99600.25;10215333;28;97718;-81
2023/06/07 19:56:57;;;;;;;3.97;3.25;;;;;;;22.90;77.02;99601.44;10233540;28;97042;-81
2023/06/07 20:02:19;;;;;;;6.15;3.55;;;;;;;22.81;77.68;99598.81;10248944;28;96693;-81
2023/06/07 20:07:22;;;;;;;5.15;2.88;;;;;;;22.81;77.58;99620.28;10254934;28;96685;-80
2023/06/07 20:12:25;;;;;;;4.45;2.17;;;;;;;22.78;77.50;99613.41;10222088;28;97752;-81
2023/06/07 20:17:30;;;;;;;4.75;3.00;;;;;;;22.76;77.06;99614.50;10214219;28;97145;-81
2023/06/07 20:22:33;;;;;;;2.95;2.30;;;;;;;22.74;77.09;99617.34;10214347;28;97851;-81
2023/06/07 20:27:36;;;;;;;4.45;2.45;;;;;;;22.61;77.58;99616.84;10214226;28;96758;-81
2023/06/07 20:32:41;;;;;;;3.40;2.20;;;;;;;22.67;77.62;99613.56;10213512;28;96762;-81
2023/06/07 20:37:46;;;;;;;1.40;1.10;;;;;;;22.49;78.01;99607.34;10213373;28;96725;-81
2023/06/07 20:42:49;;;;;;;1.60;1.13;;;;;;;22.46;77.62;99586.19;10214029;28;97598;-81
2023/06/07 20:47:54;;;;;;;4.75;2.38;;;;;;;22.11;79.32;99543.25;10231530;28;96746;-81
2023/06/07 20:53:15;;;;;;;3.90;2.20;;;;;;;22.07;79.35;99550.75;10252398;28;97738;-81
2023/06/07 20:58:21;;;;;;;4.37;2.00;;;;;;;22.06;78.80;99570.50;10253636;28;96882;-81
2023/06/07 21:03:26;;;;;;;2.47;1.70;;;;;;;22.04;78.88;99591.25;10252519;28;96999;-80
2023/06/07 21:08:30;;;;;;;2.72;1.67;;;;;;;22.02;79.06;99601.25;10221084;22;97571;-81
2023/06/07 21:13:33;;;;;;;3.60;1.60;;;;;;;21.99;79.32;99574.78;10213222;28;96613;-81
2023/06/07 21:18:56;;;;;;;3.75;1.52;;;;;;;22.10;78.78;99593.34;10206823;28;97800;-81
2023/06/07 21:23:59;;;;;;;3.55;1.80;;;;;;;21.78;80.36;99598.25;10211920;28;96734;-81
2023/06/07 21:29:02;;;;;;;2.87;1.70;;;;;;;21.68;80.66;99597.44;10217053;28;97399;-80
2023/06/07 21:34:13;;;;;;;3.85;1.60;;;;;;;21.83;79.89;99624.59;10219379;28;96743;-81
2023/06/07 21:39:17;;;;;;;3.38;1.80;;;;;;;21.86;79.24;99629.66;10220443;28;96907;-81
2023/06/07 21:44:21;;;;;;;3.13;1.80;;;;;;;21.99;79.02;99636.41;10218800;28;97535;-79
2023/06/07 21:49:28;;;;;;;4.50;2.33;;;;;;;21.72;80.30;99679.19;10219302;28;97480;-79
2023/06/07 21:54:31;;;;;;;3.15;1.92;;;;;;;21.46;82.37;99702.22;10219611;28;96673;-78
2023/06/07 21:59:34;;;;;;;4.20;2.10;;;;;;;21.58;81.11;99725.16;10219786;28;97733;-79
2023/06/07 22:04:39;;;;;;;4.20;2.13;;;;;;;21.58;81.04;99698.38;10218110;28;96813;-79
2023/06/07 22:10:01;;;;;;;3.03;1.17;;;;;;;21.45;80.77;99681.75;10212346;28;96723;-79
2023/06/07 22:15:21;;;;;;;2.92;1.52;;;;;;;21.55;80.58;99671.06;10211923;28;97030;-80
2023/06/07 22:20:27;;;;;;;2.00;1.60;;;;;;;21.53;81.05;99692.63;10218294;28;96566;-79
2023/06/07 22:25:31;;;;;;;4.45;1.58;;;;;;;21.57;80.85;99707.41;10218009;28;97685;-79
2023/06/07 22:30:44;;;;;;;2.92;1.48;;;;;;;21.60;80.63;99715.16;10218380;28;96585;-78
2023/06/07 22:35:56;;;;;;;;;;;;;;;21.69;81.10;99690.19;10217949;28;96806;-79
2023/06/07 22:41:00;;;;;;;2.25;1.25;;;;;;;21.54;80.38;99733.63;10216753;28;96753;-78
2023/06/07 22:46:03;;;;;;;3.03;1.30;;;;;;;21.18;81.50;99752.09;10217887;28;96634;-78
2023/06/07 22:51:09;;;;;;;2.15;1.05;;;;;;;20.97;83.18;99694.28;10218243;28;98027;-79
2023/06/07 22:56:12;;;;;;;1.45;0.90;;;;;;;20.94;83.00;99705.28;10217318;28;96795;-80
2023/06/07 23:01:16;;;;;;;1.25;0.68;;;;;;;21.11;81.78;99689.38;10216983;28;97255;-79
2023/06/07 23:06:21;;;;;;;1.13;0.70;;;;;;;21.16;81.61;99695.19;10215640;28;96812;-79
2023/06/07 23:11:25;;;;;;;0.88;0.70;;;;;;;21.24;80.69;99684.59;10216603;28;96681;-79
2023/06/07 23:16:29;;;;;;;2.45;0.70;;;;;;;21.25;80.75;99680.97;10216488;28;96773;-80
2023/06/07 23:21:33;;;;;;;1.60;0.68;;;;;;;21.36;80.28;99662.06;10216992;28;96645;-79
2023/06/07 23:26:36;;;;;;;1.90;0.60;;;;;;;21.33;80.00;99673.06;10216294;28;96905;-79
2023/06/07 23:31:40;;;;;;;1.00;0.85;;;;;;;21.24;79.98;99659.69;10216019;28;97019;-79
2023/06/07 23:36:45;;;;;;;1.00;0.70;;;;;;;21.20;80.19;99660.94;10215733;28;96671;-79
2023/06/07 23:41:50;;;;;;;1.02;0.80;;;;;;;21.03;80.12;99642.91;10216524;28;96941;-80
2023/06/07 23:47:11;;;;;;;0.95;0.57;;;;;;;21.00;80.09;99649.38;10214826;28;97308;-80